Time;durP1;ratioP1;P1;durP2;ratioP2;P2;SDS_P1;SDS_P2;PMS_P1;PMS_P2;Temp;Humidity;BMP_temperature;BMP_pressure;BME280_temperature;BME280_humidity;BME280_pressure;Samples;Min_cycle;Max_cycle;Signal;HPM_P1;HPM_P2
2022/04/11 00:00:25;;;;;;;10.35;4.22;;;;;;;;;;1787231;80;21460;-70
2022/04/11 00:02:51;;;;;;;9.80;4.42;;;;;;;;;;1787271;80;21060;-70
2022/04/11 00:05:18;;;;;;;14.38;5.10;;;;;;;;;;1787414;80;21111;-71
2022/04/11 00:07:46;;;;;;;12.35;4.70;;;;;;;;;;1785081;80;21079;-71
2022/04/11 00:10:13;;;;;;;15.90;5.40;;;;;;;;;;1784525;80;21606;-71
2022/04/11 00:12:40;;;;;;;20.27;7.55;;;;;;;;;;1784374;80;21101;-71
2022/04/11 00:15:08;;;;;;;21.50;7.45;;;;;;;;;;1784290;80;21060;-71
2022/04/11 00:17:35;;;;;;;18.77;7.53;;;;;;;;;;1784551;80;21071;-71
2022/04/11 00:20:03;;;;;;;24.10;8.03;;;;;;;;;;1784502;80;21055;-70
2022/04/11 00:22:29;;;;;;;22.90;8.80;;;;;;;;;;1784819;80;21032;-71
2022/04/11 00:24:56;;;;;;;19.42;7.00;;;;;;;;;;1784586;80;21521;-71
2022/04/11 00:27:23;;;;;;;24.02;8.30;;;;;;;;;;1784497;80;21040;-71
2022/04/11 00:29:50;;;;;;;24.37;8.35;;;;;;;;;;1784554;80;21060;-70
2022/04/11 00:32:17;;;;;;;24.95;8.45;;;;;;;;;;1784700;80;21056;-71
2022/04/11 00:34:45;;;;;;;22.65;8.63;;;;;;;;;;1784855;80;21547;-70
2022/04/11 00:37:12;;;;;;;29.55;9.38;;;;;;;;;;1784659;80;21029;-72
2022/04/11 00:39:40;;;;;;;22.85;8.38;;;;;;;;;;1784728;80;21612;-70
2022/04/11 00:42:08;;;;;;;19.15;7.08;;;;;;;;;;1784689;80;21539;-70
2022/04/11 00:44:34;;;;;;;24.12;7.78;;;;;;;;;;1784872;80;21525;-71
2022/04/11 00:47:01;;;;;;;21.73;7.30;;;;;;;;;;1784616;80;21053;-71
2022/04/11 00:49:27;;;;;;;23.27;7.97;;;;;;;;;;1784395;80;21104;-71
2022/04/11 00:51:53;;;;;;;20.17;7.58;;;;;;;;;;1784828;80;21009;-71
2022/04/11 00:54:20;;;;;;;21.12;7.85;;;;;;;;;;1784312;80;21048;-71
2022/04/11 00:56:46;;;;;;;25.32;7.70;;;;;;;;;;1784843;80;21528;-71
2022/04/11 00:59:15;;;;;;;21.68;6.97;;;;;;;;;;1784473;80;21064;-71
2022/04/11 01:04:31;;;;;;;17.65;7.12;;;;;;;;;;1687813;82;21174;-71
2022/04/11 01:06:58;;;;;;;19.02;6.45;;;;;;;;;;1678237;84;21047;-71
2022/04/11 01:09:24;;;;;;;16.82;7.08;;;;;;;;;;1670392;86;21070;-72
2022/04/11 01:11:51;;;;;;;18.85;6.72;;;;;;;;;;1670714;86;21032;-71
2022/04/11 01:14:17;;;;;;;20.27;6.85;;;;;;;;;;1670476;86;21565;-71
2022/04/11 01:16:48;;;;;;;16.37;5.37;;;;;;;;;;1670536;86;21073;-71
2022/04/11 01:19:15;;;;;;;15.30;6.17;;;;;;;;;;1670101;86;21149;-71
2022/04/11 01:21:44;;;;;;;19.75;6.37;;;;;;;;;;1670624;86;21106;-71
2022/04/11 01:24:11;;;;;;;16.67;5.60;;;;;;;;;;1670340;86;21051;-71
2022/04/11 01:26:38;;;;;;;11.78;5.00;;;;;;;;;;1670709;86;21059;-71
2022/04/11 01:29:05;;;;;;;15.25;5.87;;;;;;;;;;1670476;86;21546;-72
2022/04/11 01:31:32;;;;;;;12.25;4.90;;;;;;;;;;1670516;86;21087;-70
2022/04/11 01:33:59;;;;;;;13.13;5.37;;;;;;;;;;1670391;86;21087;-71
2022/04/11 01:36:25;;;;;;;12.70;5.30;;;;;;;;;;1670456;86;21055;-70
2022/04/11 01:38:52;;;;;;;10.03;5.00;;;;;;;;;;1670319;86;21059;-71
2022/04/11 01:41:24;;;;;;;13.72;5.67;;;;;;;;;;1670729;86;21099;-71
2022/04/11 01:43:47;;;;;;;13.90;5.67;;;;;;;;;;1669056;86;21051;-71
2022/04/11 01:46:13;;;;;;;16.02;6.60;;;;;;;;;;1670395;86;21111;-71
2022/04/11 01:48:41;;;;;;;11.40;5.35;;;;;;;;;;1670408;86;21578;-72
2022/04/11 01:51:08;;;;;;;14.20;6.12;;;;;;;;;;1649591;86;21096;-71
2022/04/11 01:53:35;;;;;;;14.35;5.50;;;;;;;;;;1670390;86;21043;-71
2022/04/11 01:56:04;;;;;;;14.20;4.85;;;;;;;;;;1670389;86;21500;-70
2022/04/11 01:58:31;;;;;;;10.18;4.90;;;;;;;;;;1670472;86;21161;-71
2022/04/11 02:00:59;;;;;;;11.53;4.72;;;;;;;;;;1670701;86;21515;-70
2022/04/11 02:03:26;;;;;;;10.80;5.05;;;;;;;;;;1678510;84;21667;-70
2022/04/11 02:05:52;;;;;;;10.43;4.70;;;;;;;;;;1699560;84;21034;-71
2022/04/11 02:08:20;;;;;;;13.08;4.47;;;;;;;;;;1699640;84;21564;-70
2022/04/11 02:10:49;;;;;;;14.87;4.97;;;;;;;;;;1699318;84;21073;-70
2022/04/11 02:13:17;;;;;;;11.97;4.33;;;;;;;;;;1699648;84;21624;-70
2022/04/11 02:15:45;;;;;;;13.90;5.17;;;;;;;;;;1699341;83;21109;-70
2022/04/11 02:18:11;;;;;;;9.98;4.40;;;;;;;;;;1699623;84;21049;-71
2022/04/11 02:20:39;;;;;;;9.63;4.78;;;;;;;;;;1699281;84;21100;-71
2022/04/11 02:23:07;;;;;;;10.25;4.58;;;;;;;;;;1699280;84;21097;-71
2022/04/11 02:25:36;;;;;;;11.95;4.72;;;;;;;;;;1699493;84;21125;-72
2022/04/11 02:28:05;;;;;;;11.12;5.40;;;;;;;;;;1699336;84;21159;-71
2022/04/11 02:30:32;;;;;;;12.95;5.95;;;;;;;;;;1699472;84;21517;-71
2022/04/11 02:32:59;;;;;;;13.28;5.87;;;;;;;;;;1699451;84;21101;-71
2022/04/11 02:35:25;;;;;;;13.10;6.08;;;;;;;;;;1699429;84;21077;-71
2022/04/11 02:37:52;;;;;;;13.68;5.92;;;;;;;;;;1699508;84;21057;-71
2022/04/11 02:40:19;;;;;;;11.22;5.20;;;;;;;;;;1699389;84;21140;-71
2022/04/11 02:42:48;;;;;;;12.88;4.90;;;;;;;;;;1681666;84;21113;-71
2022/04/11 02:45:15;;;;;;;12.45;5.78;;;;;;;;;;1699400;84;21600;-71
2022/04/11 02:47:42;;;;;;;13.78;5.30;;;;;;;;;;1699544;84;21082;-71
2022/04/11 02:50:09;;;;;;;11.78;5.40;;;;;;;;;;1699545;84;21081;-71
2022/04/11 02:52:37;;;;;;;12.53;5.50;;;;;;;;;;1697694;84;21070;-71
2022/04/11 02:55:04;;;;;;;10.60;5.60;;;;;;;;;;1699661;84;21093;-71
2022/04/11 02:57:31;;;;;;;11.33;5.08;;;;;;;;;;1699613;84;21553;-71
2022/04/11 02:59:57;;;;;;;11.60;5.72;;;;;;;;;;1699821;84;21093;-71
2022/04/11 03:02:23;;;;;;;12.05;5.47;;;;;;;;;;1699894;84;21656;-70
2022/04/11 03:04:50;;;;;;;15.68;6.03;;;;;;;;;;1699608;83;21664;-70
2022/04/11 03:07:18;;;;;;;10.95;5.30;;;;;;;;;;1699279;84;21010;-71
2022/04/11 03:09:47;;;;;;;10.78;4.95;;;;;;;;;;1699436;84;21022;-71
2022/04/11 03:12:14;;;;;;;11.60;5.17;;;;;;;;;;1700113;84;21034;-71
2022/04/11 03:14:42;;;;;;;12.73;4.70;;;;;;;;;;1699489;84;21568;-71
2022/04/11 03:17:10;;;;;;;9.13;4.42;;;;;;;;;;1699938;84;20991;-70
2022/04/11 03:19:37;;;;;;;7.62;3.58;;;;;;;;;;1699618;84;21019;-71
2022/04/11 03:22:04;;;;;;;8.55;3.90;;;;;;;;;;1699851;84;21050;-71
2022/04/11 03:24:30;;;;;;;9.53;4.75;;;;;;;;;;1699875;84;20962;-71
2022/04/11 03:26:57;;;;;;;7.83;4.15;;;;;;;;;;1699820;84;21038;-71
2022/04/11 03:29:26;;;;;;;8.83;4.00;;;;;;;;;;1699611;84;21014;-71
2022/04/11 03:31:52;;;;;;;9.08;4.37;;;;;;;;;;1699755;84;21029;-72
2022/04/11 03:34:20;;;;;;;7.72;3.98;;;;;;;;;;1699574;84;21029;-72
2022/04/11 03:36:46;;;;;;;9.73;3.80;;;;;;;;;;1699598;84;21517;-71
2022/04/11 03:39:13;;;;;;;5.97;3.58;;;;;;;;;;1699653;84;21092;-71
2022/04/11 03:41:43;;;;;;;5.78;3.33;;;;;;;;;;1699695;84;20990;-71
2022/04/11 03:44:11;;;;;;;7.75;3.55;;;;;;;;;;1699264;84;21097;-71
2022/04/11 03:46:39;;;;;;;8.28;3.72;;;;;;;;;;1699598;84;21092;-70
2022/04/11 03:49:07;;;;;;;8.33;3.65;;;;;;;;;;1699645;84;21041;-70
2022/04/11 03:51:34;;;;;;;6.95;3.60;;;;;;;;;;1699608;84;21070;-70
2022/04/11 03:54:01;;;;;;;7.33;4.30;;;;;;;;;;1699584;84;20971;-71
2022/04/11 03:56:28;;;;;;;6.92;3.67;;;;;;;;;;1665801;86;21084;-70
2022/04/11 03:58:55;;;;;;;6.97;3.77;;;;;;;;;;1700014;84;21074;-71
2022/04/11 04:01:22;;;;;;;6.60;3.65;;;;;;;;;;1699686;84;21030;-71
2022/04/11 04:03:48;;;;;;;7.70;3.62;;;;;;;;;;1699408;83;21169;-72
2022/04/11 04:06:15;;;;;;;7.78;3.58;;;;;;;;;;1698573;84;21037;-70
2022/04/11 04:08:44;;;;;;;8.08;3.85;;;;;;;;;;1698649;84;21066;-71
2022/04/11 04:11:16;;;;;;;7.35;3.58;;;;;;;;;;1697887;84;21105;-71
2022/04/11 04:13:53;;;;;;;6.70;3.70;;;;;;;;;;1697417;84;21046;-70
2022/04/11 04:16:21;;;;;;;6.95;3.47;;;;;;;;;;1676633;84;21142;-71
2022/04/11 04:18:50;;;;;;;6.37;3.45;;;;;;;;;;1698296;84;21534;-71
2022/04/11 04:21:18;;;;;;;6.00;3.37;;;;;;;;;;1676475;84;21093;-71
2022/04/11 04:23:46;;;;;;;7.80;3.58;;;;;;;;;;1698422;84;21038;-71
2022/04/11 04:26:14;;;;;;;6.70;4.00;;;;;;;;;;1698477;84;21525;-71
2022/04/11 04:28:40;;;;;;;8.63;3.75;;;;;;;;;;1698549;84;21069;-71
2022/04/11 04:31:08;;;;;;;8.00;3.77;;;;;;;;;;1698836;84;21521;-71
2022/04/11 04:33:35;;;;;;;5.62;3.05;;;;;;;;;;1676557;84;21054;-71
2022/04/11 04:36:02;;;;;;;5.25;3.10;;;;;;;;;;1698422;84;21101;-71
2022/04/11 04:38:28;;;;;;;4.95;3.22;;;;;;;;;;1698803;84;21548;-70
2022/04/11 04:40:56;;;;;;;5.03;2.85;;;;;;;;;;1698453;84;21061;-70
2022/04/11 04:43:24;;;;;;;4.45;2.80;;;;;;;;;;1699012;84;21533;-71
2022/04/11 04:45:51;;;;;;;5.78;3.15;;;;;;;;;;1698381;84;21136;-71
2022/04/11 04:48:38;;;;;;;6.55;3.05;;;;;;;;;;1698802;84;21065;-70
2022/04/11 04:51:04;;;;;;;7.90;3.72;;;;;;;;;;1698648;84;21046;-70
2022/04/11 04:53:33;;;;;;;5.85;3.17;;;;;;;;;;1698884;84;21105;-70
2022/04/11 04:56:01;;;;;;;7.75;3.37;;;;;;;;;;1698619;84;21593;-71
2022/04/11 04:58:27;;;;;;;6.65;2.95;;;;;;;;;;1698511;84;21085;-70
2022/04/11 05:00:54;;;;;;;4.83;3.05;;;;;;;;;;1698706;84;21081;-70
2022/04/11 05:03:23;;;;;;;5.83;3.22;;;;;;;;;;1698587;83;21137;-71
2022/04/11 05:05:50;;;;;;;5.87;3.00;;;;;;;;;;1698519;84;21112;-71
2022/04/11 05:08:17;;;;;;;5.28;3.20;;;;;;;;;;1698569;84;21045;-71
2022/04/11 05:10:45;;;;;;;4.40;2.87;;;;;;;;;;1698519;84;21034;-70
2022/04/11 05:13:13;;;;;;;4.05;2.60;;;;;;;;;;1698330;84;21129;-70
2022/04/11 05:15:42;;;;;;;6.85;2.95;;;;;;;;;;1698656;84;21058;-70
2022/04/11 05:18:10;;;;;;;5.58;3.15;;;;;;;;;;1698520;84;21137;-70
2022/04/11 05:20:36;;;;;;;6.08;3.67;;;;;;;;;;1676447;84;20995;-71
2022/04/11 05:23:03;;;;;;;5.60;3.35;;;;;;;;;;1698645;84;21109;-70
2022/04/11 05:25:31;;;;;;;4.30;2.95;;;;;;;;;;1698024;83;21136;-71
2022/04/11 05:27:58;;;;;;;6.03;3.17;;;;;;;;;;1698530;84;21062;-71
2022/04/11 05:30:25;;;;;;;5.37;3.37;;;;;;;;;;1698491;84;21066;-70
2022/04/11 05:32:52;;;;;;;6.90;3.33;;;;;;;;;;1698461;84;21011;-71
2022/04/11 05:35:18;;;;;;;5.03;3.67;;;;;;;;;;1698438;84;21078;-71
2022/04/11 05:37:46;;;;;;;5.35;3.50;;;;;;;;;;1676644;84;21073;-71
2022/04/11 05:40:14;;;;;;;5.72;3.45;;;;;;;;;;1698661;84;21078;-70
2022/04/11 05:42:40;;;;;;;6.12;3.27;;;;;;;;;;1698381;84;21105;-71
2022/04/11 05:45:08;;;;;;;5.55;4.00;;;;;;;;;;1698377;84;21061;-71
2022/04/11 05:47:37;;;;;;;4.35;2.77;;;;;;;;;;1698675;84;21088;-71
2022/04/11 05:50:04;;;;;;;5.97;3.90;;;;;;;;;;1698309;84;21093;-71
2022/04/11 05:52:31;;;;;;;6.05;2.98;;;;;;;;;;1698671;84;21631;-70
2022/04/11 05:54:58;;;;;;;6.55;3.83;;;;;;;;;;1698350;84;21065;-70
2022/04/11 05:57:24;;;;;;;6.70;3.05;;;;;;;;;;1698508;84;21523;-71
2022/04/11 05:59:51;;;;;;;5.55;3.40;;;;;;;;;;1698331;84;21077;-71
2022/04/11 06:02:17;;;;;;;5.85;3.10;;;;;;;;;;1698535;84;21124;-69
2022/04/11 06:04:45;;;;;;;5.30;2.80;;;;;;;;;;1698441;83;21778;-70
2022/04/11 06:07:11;;;;;;;5.92;3.62;;;;;;;;;;1699352;84;21046;-71
2022/04/11 06:09:39;;;;;;;4.22;2.65;;;;;;;;;;1699494;84;21083;-71
2022/04/11 06:12:09;;;;;;;5.42;3.05;;;;;;;;;;1699495;84;21089;-71
2022/04/11 06:14:36;;;;;;;6.47;3.10;;;;;;;;;;1699323;84;21057;-70
2022/04/11 06:19:46;;;;;;;5.20;3.05;;;;;;;;;;1889496;76;22738;-73
2022/04/11 06:22:12;;;;;;;4.25;2.92;;;;;;;;;;1865420;77;21017;-73
2022/04/11 06:24:39;;;;;;;3.98;2.80;;;;;;;;;;1865083;77;21050;-74
2022/04/11 06:27:07;;;;;;;5.80;3.22;;;;;;;;;;1833110;77;21046;-74
2022/04/11 06:29:33;;;;;;;5.37;3.30;;;;;;;;;;1865013;77;21436;-73
2022/04/11 06:32:05;;;;;;;4.85;2.92;;;;;;;;;;1864952;77;21423;-73
2022/04/11 06:34:35;;;;;;;4.60;3.10;;;;;;;;;;1865164;77;20999;-73
2022/04/11 06:37:03;;;;;;;3.90;2.60;;;;;;;;;;1864429;76;21018;-74
2022/04/11 06:39:30;;;;;;;5.37;2.87;;;;;;;;;;1865356;77;21369;-73
2022/04/11 06:41:57;;;;;;;6.42;2.72;;;;;;;;;;1865067;77;20983;-73
2022/04/11 06:44:25;;;;;;;3.58;2.65;;;;;;;;;;1864741;77;20992;-73
2022/04/11 06:47:00;;;;;;;7.85;3.37;;;;;;;;;;1863162;77;21878;-74
2022/04/11 06:49:27;;;;;;;6.60;3.30;;;;;;;;;;1865152;77;21038;-72
2022/04/11 06:51:55;;;;;;;5.62;2.95;;;;;;;;;;1865015;76;20988;-72
2022/04/11 06:54:21;;;;;;;7.00;3.67;;;;;;;;;;1865166;77;20994;-72
2022/04/11 06:56:48;;;;;;;5.53;3.30;;;;;;;;;;1865363;77;20976;-74
2022/04/11 06:59:15;;;;;;;6.22;3.12;;;;;;;;;;1866163;77;20988;-73
2022/04/11 07:01:43;;;;;;;7.22;3.35;;;;;;;;;;1866250;77;21222;-73
2022/04/11 07:04:09;;;;;;;5.95;3.50;;;;;;;;;;1861516;76;21050;-71
2022/04/11 07:06:40;;;;;;;6.60;3.40;;;;;;;;;;1859294;77;20974;-73
2022/04/11 07:09:08;;;;;;;10.40;4.00;;;;;;;;;;1859365;77;20991;-74
2022/04/11 07:11:34;;;;;;;8.63;3.70;;;;;;;;;;1858251;77;20963;-73
2022/04/11 07:14:02;;;;;;;6.22;3.33;;;;;;;;;;1858046;77;21213;-73
2022/04/11 07:16:29;;;;;;;6.03;3.55;;;;;;;;;;1826251;77;21010;-73
2022/04/11 07:18:56;;;;;;;4.37;2.72;;;;;;;;;;1857599;77;21025;-73
2022/04/11 07:21:22;;;;;;;4.65;3.00;;;;;;;;;;1857267;77;21057;-74
2022/04/11 07:23:49;;;;;;;6.42;3.37;;;;;;;;;;1857939;77;21013;-73
2022/04/11 07:26:16;;;;;;;5.53;3.67;;;;;;;;;;1857771;77;21045;-73
2022/04/11 07:28:44;;;;;;;7.37;3.83;;;;;;;;;;1857501;77;21064;-74
2022/04/11 07:31:10;;;;;;;10.08;6.53;;;;;;;;;;1857072;77;20966;-74
2022/04/11 07:33:38;;;;;;;8.50;5.33;;;;;;;;;;1857345;77;21017;-73
2022/04/11 07:36:04;;;;;;;6.95;4.10;;;;;;;;;;1826354;77;21379;-73
2022/04/11 07:38:31;;;;;;;7.08;5.08;;;;;;;;;;1857405;77;21042;-73
2022/04/11 07:40:58;;;;;;;6.55;3.30;;;;;;;;;;1857108;77;21022;-73
2022/04/11 07:43:25;;;;;;;5.47;3.20;;;;;;;;;;1857120;77;21018;-73
2022/04/11 07:45:53;;;;;;;5.95;3.20;;;;;;;;;;1826515;77;21045;-72
2022/04/11 07:48:19;;;;;;;7.00;4.53;;;;;;;;;;1857338;77;21056;-73
2022/04/11 07:50:46;;;;;;;4.28;2.50;;;;;;;;;;1857124;77;21364;-72
2022/04/11 07:53:13;;;;;;;3.72;2.42;;;;;;;;;;1856836;77;21019;-73
2022/04/11 07:55:40;;;;;;;4.30;2.60;;;;;;;;;;1857053;77;20997;-73
2022/04/11 07:58:08;;;;;;;3.80;2.60;;;;;;;;;;1826782;77;21018;-73
2022/04/11 08:00:35;;;;;;;5.45;2.80;;;;;;;;;;1857037;77;21018;-73
2022/04/11 08:03:01;;;;;;;5.25;2.67;;;;;;;;;;1857067;77;21041;-73
2022/04/11 08:05:29;;;;;;;5.28;3.20;;;;;;;;;;1856712;77;21430;-73
2022/04/11 08:07:56;;;;;;;6.58;3.22;;;;;;;;;;1856935;77;21097;-72
2022/04/11 08:10:23;;;;;;;4.70;2.70;;;;;;;;;;1856670;77;21084;-73
2022/04/11 08:12:52;;;;;;;7.75;2.90;;;;;;;;;;1856928;77;21383;-72
2022/04/11 08:15:18;;;;;;;6.08;3.37;;;;;;;;;;1857030;77;21025;-73
2022/04/11 08:17:47;;;;;;;6.67;3.52;;;;;;;;;;1856712;77;21007;-73
2022/04/11 08:20:14;;;;;;;5.25;3.15;;;;;;;;;;1829472;77;21031;-72
2022/04/11 08:22:42;;;;;;;7.65;2.90;;;;;;;;;;1829859;78;21495;-73
2022/04/11 08:25:10;;;;;;;3.47;2.37;;;;;;;;;;1829435;78;21098;-73
2022/04/11 08:27:38;;;;;;;5.53;2.92;;;;;;;;;;1829895;78;20974;-74
2022/04/11 08:30:04;;;;;;;5.25;3.17;;;;;;;;;;1829390;78;21826;-73
2022/04/11 08:32:41;;;;;;;4.87;2.80;;;;;;;;;;1829710;78;21467;-72
2022/04/11 08:35:08;;;;;;;9.00;3.98;;;;;;;;;;1829835;78;21042;-72
2022/04/11 08:37:37;;;;;;;6.53;3.27;;;;;;;;;;1830099;78;21050;-72
2022/04/11 08:40:07;;;;;;;5.03;3.00;;;;;;;;;;1829966;78;21010;-73
2022/04/11 08:42:34;;;;;;;4.72;2.55;;;;;;;;;;1829297;78;21050;-72
2022/04/11 08:45:02;;;;;;;5.55;3.00;;;;;;;;;;1829431;78;21070;-73
2022/04/11 08:47:29;;;;;;;5.05;2.35;;;;;;;;;;1829475;78;21007;-73
2022/04/11 08:49:55;;;;;;;3.00;2.27;;;;;;;;;;1802064;78;20991;-73
2022/04/11 08:52:22;;;;;;;4.17;2.50;;;;;;;;;;1829894;78;21042;-73
2022/04/11 08:54:48;;;;;;;5.40;2.65;;;;;;;;;;1829913;78;21030;-73
2022/04/11 08:57:14;;;;;;;4.53;2.58;;;;;;;;;;1829902;78;20967;-73
2022/04/11 08:59:42;;;;;;;4.80;2.50;;;;;;;;;;1829426;78;21027;-73
2022/04/11 09:02:10;;;;;;;4.10;2.75;;;;;;;;;;1829716;78;21031;-73
2022/04/11 09:04:56;;;;;;;6.50;2.90;;;;;;;;;;1829568;78;21015;-73
2022/04/11 09:07:21;;;;;;;3.67;2.85;;;;;;;;;;1830365;78;21003;-72
2022/04/11 09:09:48;;;;;;;4.90;2.77;;;;;;;;;;1830318;78;21458;-72
2022/04/11 09:12:17;;;;;;;4.33;2.65;;;;;;;;;;1829378;78;21038;-72
2022/04/11 09:14:44;;;;;;;5.00;2.50;;;;;;;;;;1829550;78;21415;-73
2022/04/11 09:17:15;;;;;;;5.60;2.98;;;;;;;;;;1764031;80;21075;-73
2022/04/11 09:19:43;;;;;;;4.28;2.60;;;;;;;;;;1806368;79;21095;-75
2022/04/11 09:22:12;;;;;;;3.65;2.72;;;;;;;;;;1806141;79;21036;-73
2022/04/11 09:24:43;;;;;;;4.05;2.33;;;;;;;;;;1806320;79;20980;-73
2022/04/11 09:27:10;;;;;;;4.30;2.30;;;;;;;;;;1806264;79;21323;-73
2022/04/11 09:29:39;;;;;;;5.45;2.70;;;;;;;;;;1806310;79;21043;-73
2022/04/11 09:32:06;;;;;;;5.78;3.20;;;;;;;;;;1806042;79;21043;-73
2022/04/11 09:34:32;;;;;;;9.30;3.15;;;;;;;;;;1806319;79;21295;-73
2022/04/11 09:37:02;;;;;;;4.67;2.62;;;;;;;;;;1806193;79;21019;-73
2022/04/11 09:39:33;;;;;;;5.62;3.52;;;;;;;;;;1806583;79;21413;-73
2022/04/11 09:42:03;;;;;;;6.83;3.27;;;;;;;;;;1806166;79;20989;-73
2022/04/11 09:44:30;;;;;;;4.90;2.60;;;;;;;;;;1779865;79;21059;-71
2022/04/11 09:46:59;;;;;;;3.20;2.27;;;;;;;;;;1806158;79;21048;-72
2022/04/11 09:49:39;;;;;;;5.40;2.42;;;;;;;;;;1806118;79;21035;-72
2022/04/11 09:52:13;;;;;;;4.83;2.55;;;;;;;;;;1778153;79;21043;-74
2022/04/11 09:54:49;;;;;;;4.67;2.52;;;;;;;;;;1806489;79;21054;-73
2022/04/11 09:57:12;;;;;;;;;;;;;;;;;;1807556;79;21031;-73
2022/04/11 09:59:41;;;;;;;3.95;2.55;;;;;;;;;;1806444;79;20094;-73
2022/04/11 10:02:11;;;;;;;3.37;2.30;;;;;;;;;;1806042;79;21029;-74
2022/04/11 10:04:38;;;;;;;4.70;2.50;;;;;;;;;;1806194;79;21086;-73
2022/04/11 10:07:06;;;;;;;3.90;2.30;;;;;;;;;;1806534;79;21106;-73
2022/04/11 10:09:33;;;;;;;4.35;2.33;;;;;;;;;;1806439;79;21440;-73
2022/04/11 10:12:02;;;;;;;3.35;2.30;;;;;;;;;;1779185;79;21081;-73
2022/04/11 10:14:28;;;;;;;4.95;2.77;;;;;;;;;;1806242;79;20984;-72
2022/04/11 10:16:57;;;;;;;4.55;2.67;;;;;;;;;;1806560;79;21008;-73
2022/04/11 10:19:25;;;;;;;4.78;2.90;;;;;;;;;;1806516;79;20965;-72
2022/04/11 10:24:49;;;;;;;3.92;2.55;;;;;;;;;;1820124;79;22721;-70
2022/04/11 10:27:23;;;;;;;5.35;2.85;;;;;;;;;;1793257;80;21016;-70
2022/04/11 10:29:48;;;;;;;7.03;3.70;;;;;;;;;;1792415;80;21001;-71
2022/04/11 10:32:15;;;;;;;4.95;2.80;;;;;;;;;;1793134;80;21020;-71
2022/04/11 10:34:46;;;;;;;5.10;2.60;;;;;;;;;;1792993;80;21087;-71
2022/04/11 10:37:12;;;;;;;6.40;2.83;;;;;;;;;;1793136;80;21056;-71
2022/04/11 10:39:39;;;;;;;7.33;3.50;;;;;;;;;;1792864;80;21119;-71
2022/04/11 10:42:06;;;;;;;5.37;2.65;;;;;;;;;;1792849;80;21051;-71
2022/04/11 10:44:50;;;;;;;4.45;2.37;;;;;;;;;;1729309;80;21036;-69
2022/04/11 10:47:20;;;;;;;6.17;3.27;;;;;;;;;;1792443;80;21025;-69
2022/04/11 10:50:01;;;;;;;8.40;3.72;;;;;;;;;;1792948;80;21100;-71
2022/04/11 10:52:31;;;;;;;4.65;2.77;;;;;;;;;;1792809;80;21099;-69
2022/04/11 10:55:17;;;;;;;8.05;3.30;;;;;;;;;;1793022;80;21044;-70
2022/04/11 10:57:55;;;;;;;8.30;4.75;;;;;;;;;;1762013;80;21116;-70
2022/04/11 11:00:31;;;;;;;7.40;3.60;;;;;;;;;;1793224;80;21035;-71
2022/04/11 11:03:02;;;;;;;8.43;3.60;;;;;;;;;;1792112;79;21718;-69
2022/04/11 11:05:38;;;;;;;6.12;3.70;;;;;;;;;;1788243;80;21576;-71
2022/04/11 11:08:10;;;;;;;10.30;4.50;;;;;;;;;;1787774;80;21256;-71
2022/04/11 11:10:42;;;;;;;7.90;3.87;;;;;;;;;;1788125;80;21556;-71
2022/04/11 11:13:32;;;;;;;8.73;4.17;;;;;;;;;;1711933;83;21088;-71
2022/04/11 11:16:01;;;;;;;8.63;4.10;;;;;;;;;;1719584;83;21140;-70
2022/04/11 11:18:30;;;;;;;8.58;4.20;;;;;;;;;;1719223;83;21045;-70
2022/04/11 11:20:58;;;;;;;7.67;3.77;;;;;;;;;;1715716;83;21100;-71
2022/04/11 11:23:26;;;;;;;6.62;3.52;;;;;;;;;;1746420;82;21061;-70
2022/04/11 11:25:54;;;;;;;9.20;3.70;;;;;;;;;;1706984;84;21109;-70
2022/04/11 11:28:22;;;;;;;8.33;3.85;;;;;;;;;;1737869;82;21038;-70
2022/04/11 11:30:50;;;;;;;6.05;3.37;;;;;;;;;;1707128;84;21022;-70
2022/04/11 11:33:17;;;;;;;5.87;3.72;;;;;;;;;;1707255;84;21058;-70
2022/04/11 11:35:47;;;;;;;4.25;2.65;;;;;;;;;;1737456;82;21525;-70
2022/04/11 11:38:13;;;;;;;5.90;3.22;;;;;;;;;;1706361;84;21069;-70
2022/04/11 11:40:43;;;;;;;4.47;2.90;;;;;;;;;;1706531;84;21633;-70
2022/04/11 11:43:14;;;;;;;4.97;2.72;;;;;;;;;;1706779;84;21065;-71
2022/04/11 11:45:41;;;;;;;4.87;2.95;;;;;;;;;;1737572;82;21533;-71
2022/04/11 11:48:24;;;;;;;4.20;2.72;;;;;;;;;;1707006;84;21160;-70
2022/04/11 11:50:51;;;;;;;5.97;2.80;;;;;;;;;;1706991;84;21478;-71
2022/04/11 11:53:18;;;;;;;5.53;3.08;;;;;;;;;;1737640;82;20995;-70
2022/04/11 11:55:55;;;;;;;5.05;3.40;;;;;;;;;;1706882;84;21073;-71
2022/04/11 11:58:22;;;;;;;5.53;3.72;;;;;;;;;;1706801;84;21093;-70
2022/04/11 12:00:48;;;;;;;6.05;3.80;;;;;;;;;;1737616;82;21529;-70
2022/04/11 12:06:01;;;;;;;4.67;3.10;;;;;;;;;;1706508;84;21077;-70
2022/04/11 12:08:32;;;;;;;4.00;2.60;;;;;;;;;;1737575;82;21073;-70
2022/04/11 12:10:59;;;;;;;4.03;2.60;;;;;;;;;;1706411;84;21086;-70
2022/04/11 12:13:29;;;;;;;5.53;2.50;;;;;;;;;;1706740;84;21569;-70
2022/04/11 12:16:06;;;;;;;4.92;2.58;;;;;;;;;;1706711;84;21555;-70
2022/04/11 12:18:47;;;;;;;4.00;2.58;;;;;;;;;;1706424;84;21169;-69
2022/04/11 12:21:14;;;;;;;5.17;2.37;;;;;;;;;;1737642;82;21064;-69
2022/04/11 12:23:44;;;;;;;3.62;2.17;;;;;;;;;;1705414;84;21113;-69
2022/04/11 12:26:10;;;;;;;4.72;2.50;;;;;;;;;;1703752;84;21033;-69
2022/04/11 12:28:39;;;;;;;3.77;2.20;;;;;;;;;;1710852;82;21022;-70
2022/04/11 12:31:18;;;;;;;4.03;2.50;;;;;;;;;;1703667;84;21577;-71
2022/04/11 12:33:41;;;;;;;5.83;3.00;;;;;;;;;;1735334;82;21041;-70
2022/04/11 12:36:07;;;;;;;3.62;2.45;;;;;;;;;;1703725;84;21320;-71
2022/04/11 12:38:52;;;;;;;3.33;2.17;;;;;;;;;;1703527;84;21122;-71
2022/04/11 12:41:23;;;;;;;5.28;2.90;;;;;;;;;;1703828;84;21089;-71
2022/04/11 12:44:02;;;;;;;6.53;3.25;;;;;;;;;;1703770;84;21086;-69
2022/04/11 12:46:29;;;;;;;4.97;2.67;;;;;;;;;;1737670;82;21042;-70
2022/04/11 12:48:56;;;;;;;6.30;2.90;;;;;;;;;;1703535;84;21513;-71
2022/04/11 12:51:23;;;;;;;4.20;2.50;;;;;;;;;;1703727;84;21038;-70
2022/04/11 12:53:50;;;;;;;5.40;2.35;;;;;;;;;;1737299;82;21634;-69
2022/04/11 12:56:17;;;;;;;3.67;2.42;;;;;;;;;;1703663;84;21101;-70
2022/04/11 12:58:44;;;;;;;4.62;2.70;;;;;;;;;;1703489;84;21533;-70
2022/04/11 13:01:11;;;;;;;3.75;2.60;;;;;;;;;;1737243;82;21077;-70
2022/04/11 13:03:38;;;;;;;3.65;2.30;;;;;;;;;;1703632;84;21653;-70
2022/04/11 13:06:05;;;;;;;5.05;2.50;;;;;;;;;;1703387;84;21109;-70
2022/04/11 13:08:31;;;;;;;3.65;2.20;;;;;;;;;;1703826;84;21081;-70
2022/04/11 13:10:58;;;;;;;3.50;2.40;;;;;;;;;;1737385;82;21077;-70
2022/04/11 13:13:26;;;;;;;4.47;2.33;;;;;;;;;;1703720;84;21050;-70
2022/04/11 13:18:40;;;;;;;5.65;2.80;;;;;;;;;;1703429;84;21058;-69
2022/04/11 13:21:06;;;;;;;3.60;2.40;;;;;;;;;;1737676;82;21057;-71
2022/04/11 13:23:33;;;;;;;4.67;2.30;;;;;;;;;;1704557;84;21124;-69
2022/04/11 13:25:59;;;;;;;3.20;2.37;;;;;;;;;;1708726;84;20998;-69
2022/04/11 13:28:25;;;;;;;4.00;2.40;;;;;;;;;;1740374;82;21125;-72
2022/04/11 13:30:52;;;;;;;3.87;2.50;;;;;;;;;;1709112;84;21069;-71
2022/04/11 13:33:20;;;;;;;5.17;2.20;;;;;;;;;;1715416;82;21273;-71
2022/04/11 13:35:47;;;;;;;4.15;2.10;;;;;;;;;;1779192;81;21595;-71
2022/04/11 13:38:13;;;;;;;5.47;2.50;;;;;;;;;;1779284;81;21048;-71
2022/04/11 13:40:39;;;;;;;4.58;2.15;;;;;;;;;;1779240;81;21068;-71
2022/04/11 13:43:06;;;;;;;5.60;2.27;;;;;;;;;;1779426;81;21045;-71
2022/04/11 13:45:33;;;;;;;7.25;2.47;;;;;;;;;;1779311;81;21025;-71
2022/04/11 13:47:59;;;;;;;4.92;2.05;;;;;;;;;;1779084;81;21041;-71
2022/04/11 13:50:25;;;;;;;3.55;2.30;;;;;;;;;;1779527;81;21630;-71
2022/04/11 13:52:51;;;;;;;4.50;2.27;;;;;;;;;;1779167;81;21041;-71
2022/04/11 13:55:18;;;;;;;5.45;2.70;;;;;;;;;;1779454;81;21098;-71
2022/04/11 13:57:45;;;;;;;6.90;2.42;;;;;;;;;;1779201;81;21052;-71
2022/04/11 14:00:12;;;;;;;4.00;2.20;;;;;;;;;;1779271;81;21057;-71
2022/04/11 14:02:38;;;;;;;3.60;2.35;;;;;;;;;;1779313;80;21492;-71
2022/04/11 14:05:06;;;;;;;3.08;1.92;;;;;;;;;;1779232;81;21561;-71
2022/04/11 14:07:34;;;;;;;2.77;2.00;;;;;;;;;;1779298;81;21077;-71
2022/04/11 14:10:01;;;;;;;5.40;2.47;;;;;;;;;;1779219;81;21112;-70
2022/04/11 14:12:28;;;;;;;4.62;2.40;;;;;;;;;;1779179;81;21037;-71
2022/04/11 14:14:54;;;;;;;4.65;2.20;;;;;;;;;;1779584;81;21053;-70
2022/04/11 14:17:21;;;;;;;3.45;2.22;;;;;;;;;;1779209;81;21081;-70
2022/04/11 14:19:47;;;;;;;4.08;2.35;;;;;;;;;;1779537;81;21045;-71
2022/04/11 14:22:13;;;;;;;4.97;2.27;;;;;;;;;;1779153;81;21064;-71
2022/04/11 14:24:41;;;;;;;4.97;2.47;;;;;;;;;;1779387;81;21042;-71
2022/04/11 14:27:07;;;;;;;4.30;2.40;;;;;;;;;;1779014;81;21064;-70
2022/04/11 14:29:33;;;;;;;4.00;2.02;;;;;;;;;;1779167;81;21044;-70
2022/04/11 14:32:00;;;;;;;3.12;1.95;;;;;;;;;;1779432;81;21037;-70
2022/04/11 14:34:27;;;;;;;2.75;2.00;;;;;;;;;;1779221;81;21037;-70
2022/04/11 14:36:53;;;;;;;4.22;2.30;;;;;;;;;;1779397;81;21080;-70
2022/04/11 14:39:19;;;;;;;3.90;1.98;;;;;;;;;;1779183;81;21583;-71
2022/04/11 14:41:45;;;;;;;3.20;2.00;;;;;;;;;;1779033;81;21013;-72
2022/04/11 14:44:12;;;;;;;3.55;2.22;;;;;;;;;;1779534;81;21587;-71
2022/04/11 14:46:38;;;;;;;4.25;1.98;;;;;;;;;;1779468;81;21524;-70
2022/04/11 14:49:04;;;;;;;3.95;2.17;;;;;;;;;;1779488;81;21036;-69
2022/04/11 14:51:30;;;;;;;3.47;2.00;;;;;;;;;;1779238;81;21109;-70
2022/04/11 14:53:57;;;;;;;5.40;2.10;;;;;;;;;;1779196;81;21079;-71
2022/04/11 14:56:23;;;;;;;3.62;2.30;;;;;;;;;;1779496;81;21111;-71
2022/04/11 14:58:49;;;;;;;3.62;2.10;;;;;;;;;;1779070;81;21614;-71